createdAt,value
2023-09-08T00:02:23.164Z,96.62
2023-09-08T00:05:15.767Z,96.69
2023-09-08T00:08:08.914Z,96.70
2023-09-08T00:11:01.915Z,96.67
2023-09-08T00:13:54.730Z,96.72
2023-09-08T00:16:49.727Z,96.75
2023-09-08T00:19:42.955Z,96.96
2023-09-08T00:22:37.413Z,97.31
2023-09-08T00:25:30.270Z,97.57
2023-09-08T00:28:23.024Z,97.62
2023-09-08T00:31:15.651Z,97.55
2023-09-08T00:34:09.529Z,97.58
2023-09-08T00:37:26.056Z,97.82
2023-09-08T00:40:19.087Z,98.06
2023-09-08T00:43:13.548Z,98.30
2023-09-08T00:46:06.526Z,98.47
2023-09-08T00:49:01.885Z,98.25
2023-09-08T00:51:55.156Z,98.38
2023-09-08T00:54:48.939Z,98.49
2023-09-08T00:57:41.764Z,98.54
2023-09-08T01:00:35.049Z,98.32
2023-09-08T01:03:16.555Z,98.28
2023-09-08T01:06:10.283Z,98.40
2023-09-08T01:09:03.857Z,98.51
2023-09-08T01:12:01.912Z,98.37
2023-09-08T01:14:54.693Z,98.46
2023-09-08T01:17:27.649Z,98.40
2023-09-08T01:20:26.077Z,98.21
2023-09-08T01:23:30.669Z,98.34
2023-09-08T01:26:28.139Z,98.32
2023-09-08T01:29:21.852Z,98.22
2023-09-08T01:32:15.903Z,98.18
2023-09-08T01:35:09.932Z,98.17
2023-09-08T01:38:02.620Z,97.99
2023-09-08T01:40:55.302Z,98.09
2023-09-08T01:43:50.207Z,98.24
2023-09-08T01:46:43.053Z,98.41
2023-09-08T01:49:38.139Z,99.40
2023-09-08T01:52:31.105Z,99.89
2023-09-08T01:55:23.729Z,99.97
2023-09-08T01:58:16.535Z,99.98
2023-09-08T02:01:07.401Z,99.85
2023-09-08T02:04:00.247Z,99.49
2023-09-08T02:06:54.301Z,99.58
2023-09-08T02:09:47.360Z,99.29
2023-09-08T02:12:43.656Z,99.13
2023-09-08T02:15:38.907Z,98.92
2023-09-08T02:18:32.173Z,98.93
2023-09-08T02:21:24.976Z,98.71
2023-09-08T02:24:20.048Z,98.71
2023-09-08T02:27:12.757Z,98.53
2023-09-08T02:30:07.759Z,98.55
2023-09-08T02:33:00.537Z,98.35
2023-09-08T02:35:54.251Z,98.45
2023-09-08T02:38:47.032Z,98.41
2023-09-08T02:41:42.539Z,98.60
2023-09-08T02:44:36.052Z,98.63
2023-09-08T02:47:30.004Z,98.47
2023-09-08T02:50:23.324Z,98.48
2023-09-08T02:53:16.090Z,98.47
2023-09-08T02:56:10.550Z,98.35
2023-09-08T02:59:03.238Z,98.36
2023-09-08T03:01:56.037Z,98.33
2023-09-08T03:04:49.604Z,98.31
2023-09-08T03:07:42.341Z,98.27
2023-09-08T03:10:37.583Z,98.17
2023-09-08T03:13:13.532Z,98.22
2023-09-08T03:16:10.625Z,98.21
2023-09-08T03:19:03.560Z,98.12
2023-09-08T03:21:56.322Z,98.23
2023-09-08T03:24:42.706Z,98.03
2023-09-08T03:27:34.033Z,98.05
2023-09-08T03:30:29.850Z,98.28
2023-09-08T03:33:22.750Z,98.16
2023-09-08T03:36:16.634Z,98.26
2023-09-08T03:39:11.007Z,98.11
2023-09-08T03:42:03.994Z,98.32
2023-09-08T03:44:56.745Z,98.37
2023-09-08T03:47:49.494Z,98.41
2023-09-08T03:50:43.369Z,98.52
2023-09-08T03:53:36.923Z,98.52
2023-09-08T03:56:22.812Z,98.62
2023-09-08T03:59:16.180Z,98.94
2023-09-08T04:02:09.012Z,98.94
2023-09-08T04:05:02.293Z,99.25
2023-09-08T04:07:55.332Z,99.25
2023-09-08T04:10:48.471Z,99.19
2023-09-08T04:13:41.152Z,99.50
2023-09-08T04:16:34.828Z,99.68
2023-09-08T04:19:28.044Z,99.87
2023-09-08T04:22:21.584Z,99.98
2023-09-08T04:25:15.548Z,100.00
2023-09-08T04:28:10.001Z,100.00
2023-09-08T04:31:03.411Z,100.00
2023-09-08T04:33:57.584Z,100.00
2023-09-08T04:36:50.220Z,100.00
2023-09-08T04:39:43.242Z,100.00
2023-09-08T04:42:36.239Z,100.00
2023-09-08T04:45:29.351Z,100.00
2023-09-08T04:48:15.442Z,100.00
2023-09-08T04:51:08.809Z,100.00
2023-09-08T04:54:01.440Z,100.00
2023-09-08T04:56:57.031Z,100.00
2023-09-08T04:59:56.983Z,100.00
2023-09-08T05:02:50.175Z,100.00
2023-09-08T05:05:35.825Z,100.00
2023-09-08T05:08:28.573Z,100.00
2023-09-08T05:11:21.461Z,100.00
2023-09-08T05:14:14.610Z,100.00
2023-09-08T05:17:07.757Z,99.59
2023-09-08T05:19:56.309Z,98.66
2023-09-08T05:22:49.047Z,98.69
2023-09-08T05:25:43.980Z,97.88
2023-09-08T05:28:39.404Z,97.23
2023-09-08T05:31:34.209Z,97.24
2023-09-08T05:34:26.932Z,97.45
2023-09-08T05:37:19.699Z,97.37
2023-09-08T05:40:13.498Z,97.38
2023-09-08T05:43:07.827Z,97.26
2023-09-08T05:46:00.689Z,96.90
2023-09-08T05:48:53.555Z,97.19
2023-09-08T05:51:46.507Z,97.11
2023-09-08T05:54:40.110Z,97.11
2023-09-08T05:57:32.831Z,97.07
2023-09-08T06:00:25.614Z,97.10
2023-09-08T06:03:18.401Z,97.29
2023-09-08T06:06:12.542Z,97.56
2023-09-08T06:09:09.099Z,97.46
2023-09-08T06:11:55.196Z,96.86
2023-09-08T06:14:48.395Z,96.86
2023-09-08T06:17:35.560Z,96.37
2023-09-08T06:20:29.263Z,96.05
2023-09-08T06:23:25.838Z,94.93
2023-09-08T06:26:18.176Z,94.78
2023-09-08T06:29:11.180Z,94.29
2023-09-08T06:32:04.040Z,94.33
2023-09-08T06:34:56.786Z,94.06
2023-09-08T06:37:49.588Z,93.51
2023-09-08T06:40:42.674Z,92.28
2023-09-08T06:43:35.253Z,92.54
2023-09-08T06:46:28.226Z,91.97
2023-09-08T06:49:21.375Z,91.67
2023-09-08T06:52:14.482Z,91.08
2023-09-08T06:55:08.139Z,90.76
2023-09-08T06:58:00.867Z,89.90
2023-09-08T07:00:55.786Z,88.88
2023-09-08T07:03:49.149Z,88.72
2023-09-08T07:06:43.076Z,87.16
2023-09-08T07:09:36.846Z,86.87
2023-09-08T07:12:29.669Z,86.48
2023-09-08T07:15:22.262Z,86.42
2023-09-08T07:18:15.333Z,84.76
2023-09-08T07:21:08.370Z,84.56
2023-09-08T07:24:01.792Z,82.43
2023-09-08T07:26:56.431Z,81.45
2023-09-08T07:29:50.795Z,81.55
2023-09-08T07:32:44.032Z,81.69
2023-09-08T07:35:38.507Z,81.03
2023-09-08T07:38:31.433Z,80.32
2023-09-08T07:41:24.822Z,78.78
2023-09-08T07:44:17.752Z,78.42
2023-09-08T07:46:59.631Z,78.16
2023-09-08T07:49:52.412Z,77.93
2023-09-08T07:52:35.328Z,77.46
2023-09-08T07:55:30.067Z,77.09
2023-09-08T07:58:23.954Z,77.54
2023-09-08T08:01:17.308Z,77.09
2023-09-08T08:04:10.604Z,74.85
2023-09-08T08:07:03.514Z,74.51
2023-09-08T08:09:56.578Z,74.71
2023-09-08T08:12:49.463Z,74.66
2023-09-08T08:15:23.638Z,74.56
2023-09-08T08:18:16.808Z,73.97
2023-09-08T08:21:09.480Z,72.74
2023-09-08T08:24:01.303Z,72.28
2023-09-08T08:26:54.292Z,71.92
2023-09-08T08:29:46.909Z,71.92
2023-09-08T08:32:39.432Z,71.06
2023-09-08T08:35:25.736Z,70.04
2023-09-08T08:38:18.500Z,70.25
2023-09-08T08:41:11.275Z,69.81
2023-09-08T08:44:04.446Z,68.40
2023-09-08T08:46:58.160Z,68.76
2023-09-08T08:49:50.833Z,67.84
2023-09-08T08:52:43.130Z,67.78
2023-09-08T08:55:36.682Z,67.59
2023-09-08T08:58:30.233Z,68.35
2023-09-08T09:01:23.439Z,67.93
2023-09-08T09:04:16.865Z,66.69
2023-09-08T09:07:10.313Z,66.56
2023-09-08T09:10:01.817Z,66.39
2023-09-08T09:12:54.844Z,65.72
2023-09-08T09:15:48.254Z,64.62
2023-09-08T09:18:59.878Z,64.20
2023-09-08T09:21:52.608Z,64.16
2023-09-08T09:24:46.497Z,63.82
2023-09-08T09:27:38.991Z,63.71
2023-09-08T09:30:25.883Z,63.63
2023-09-08T09:33:09.356Z,62.78
2023-09-08T09:36:02.174Z,61.19
2023-09-08T09:39:00.157Z,61.72
2023-09-08T09:41:55.732Z,61.86
2023-09-08T09:44:49.139Z,61.41
2023-09-08T09:47:40.887Z,59.83
2023-09-08T09:50:35.534Z,57.57
2023-09-08T09:53:27.682Z,56.39
2023-09-08T09:56:22.849Z,56.54
2023-09-08T09:59:16.898Z,56.72
2023-09-08T10:02:14.835Z,56.83
2023-09-08T10:05:16.547Z,55.85
2023-09-08T10:08:11.668Z,56.18
2023-09-08T10:11:02.367Z,56.06
2023-09-08T10:13:49.194Z,55.28
2023-09-08T10:16:45.601Z,55.03
2023-09-08T10:19:44.245Z,55.83
2023-09-08T11:20:32.614Z,50.86
2023-09-08T11:23:06.407Z,48.90
2023-09-08T11:25:39.355Z,48.83
2023-09-08T11:28:24.135Z,49.42
2023-09-08T11:30:58.549Z,48.83
2023-09-08T11:33:42.598Z,48.40
2023-09-08T11:36:20.035Z,49.04
2023-09-08T11:38:52.799Z,49.39
2023-09-08T11:41:30.426Z,50.24
2023-09-08T11:44:08.728Z,50.51
2023-09-08T11:46:42.879Z,50.11
2023-09-08T11:49:24.159Z,50.52
2023-09-08T11:51:58.470Z,50.48
2023-09-08T11:54:51.962Z,51.59
2023-09-08T11:57:38.307Z,49.25
2023-09-08T12:00:17.181Z,48.72
2023-09-08T12:02:52.687Z,49.63
2023-09-08T12:05:52.863Z,49.43
2023-09-08T12:08:30.509Z,49.48
2023-09-08T12:11:03.260Z,48.77
2023-09-08T12:13:38.558Z,48.98
2023-09-08T12:16:23.537Z,49.04
2023-09-08T12:18:56.369Z,48.06
2023-09-08T12:21:29.040Z,47.51
2023-09-08T12:24:04.777Z,47.74
2023-09-08T12:26:40.039Z,48.49
2023-09-08T12:29:17.756Z,46.97
2023-09-08T12:31:50.157Z,46.94
2023-09-08T12:34:25.302Z,47.25
2023-09-08T12:37:00.688Z,48.51
2023-09-08T12:39:33.207Z,49.26
2023-09-08T12:42:08.764Z,49.13
2023-09-08T12:44:42.893Z,48.28
2023-09-08T12:47:15.802Z,48.14
2023-09-08T12:49:51.537Z,47.18
2023-09-08T12:52:27.259Z,47.10
2023-09-08T12:55:00.817Z,47.21
2023-09-08T12:57:33.318Z,46.90
2023-09-08T13:00:08.604Z,45.99
2023-09-08T13:02:42.779Z,46.56
2023-09-08T13:05:15.573Z,47.21
2023-09-08T13:07:48.365Z,45.69
2023-09-08T13:10:21.385Z,45.68
2023-09-08T13:12:54.307Z,45.92
2023-09-08T13:15:37.586Z,46.95
2023-09-08T13:18:10.424Z,46.67
2023-09-08T13:20:43.022Z,47.14
2023-09-08T13:23:16.006Z,47.29
2023-09-08T13:25:53.045Z,46.34
2023-09-08T13:28:28.097Z,45.61
2023-09-08T13:31:00.985Z,44.92
2023-09-08T13:33:37.384Z,43.95
2023-09-08T13:36:12.218Z,43.99
2023-09-08T13:38:46.647Z,44.69
2023-09-08T13:41:19.592Z,44.46
2023-09-08T13:43:52.261Z,44.04
2023-09-08T13:46:27.980Z,44.24
2023-09-08T13:49:05.027Z,44.82
2023-09-08T13:51:42.552Z,45.21
2023-09-08T13:54:18.199Z,44.83
2023-09-08T13:57:03.357Z,44.13
2023-09-08T13:59:42.456Z,44.31
2023-09-08T14:02:39.784Z,44.06
2023-09-08T14:05:11.215Z,44.06
2023-09-08T14:07:46.746Z,44.07
2023-09-08T14:13:00.085Z,43.62
2023-09-08T14:15:34.599Z,43.46
2023-09-08T14:18:07.859Z,43.23
2023-09-08T14:20:40.440Z,42.95
2023-09-08T14:23:13.063Z,42.82
2023-09-08T14:25:48.149Z,42.46
2023-09-08T14:28:35.051Z,42.35
2023-09-08T14:31:08.451Z,43.17
2023-09-08T14:33:41.394Z,42.74
2023-09-08T14:36:18.830Z,42.62
2023-09-08T14:38:49.788Z,42.98
2023-09-08T14:41:25.276Z,43.26
2023-09-08T14:44:00.744Z,44.85
2023-09-08T14:46:36.276Z,43.85
2023-09-08T14:49:20.169Z,44.54
2023-09-08T14:51:52.866Z,44.44
2023-09-08T14:54:27.563Z,44.40
2023-09-08T14:57:20.321Z,44.44
2023-09-08T14:59:58.315Z,44.62
2023-09-08T15:02:34.489Z,45.27
2023-09-08T15:05:07.884Z,45.78
2023-09-08T15:07:43.246Z,45.87
2023-09-08T15:10:15.859Z,45.67
2023-09-08T15:12:51.406Z,45.84
2023-09-08T15:15:26.949Z,45.92
2023-09-08T15:18:23.796Z,45.33
2023-09-08T15:20:59.160Z,45.74
2023-09-08T15:23:35.376Z,45.77
2023-09-08T15:26:22.395Z,45.57
2023-09-08T15:29:16.433Z,45.54
2023-09-08T15:31:59.720Z,46.17
2023-09-08T15:34:44.510Z,46.61
2023-09-08T15:37:30.399Z,47.12
2023-09-08T15:40:15.640Z,46.91
2023-09-08T15:42:50.263Z,46.62
2023-09-08T15:45:34.491Z,46.26
2023-09-08T15:48:09.962Z,46.40
2023-09-08T15:50:42.617Z,46.42
2023-09-08T15:53:18.225Z,47.62
2023-09-08T15:55:50.957Z,47.82
2023-09-08T15:58:27.550Z,48.65
2023-09-08T16:01:10.486Z,48.86
2023-09-08T16:03:46.543Z,49.91
2023-09-08T16:06:25.699Z,50.35
2023-09-08T16:08:58.137Z,50.79
2023-09-08T16:11:41.144Z,51.87
2023-09-08T16:14:16.262Z,52.34
2023-09-08T16:16:48.903Z,52.97
2023-09-08T16:19:24.784Z,53.60
2023-09-08T16:22:09.092Z,54.27
2023-09-08T16:24:51.890Z,54.71
2023-09-08T16:27:35.023Z,55.12
2023-09-08T16:30:18.181Z,55.68
2023-09-08T16:33:11.118Z,56.23
2023-09-08T16:36:06.262Z,56.74
2023-09-08T16:38:41.295Z,57.33
2023-09-08T16:41:17.182Z,57.68
2023-09-08T16:43:55.207Z,58.27
2023-09-08T16:46:31.048Z,58.71
2023-09-08T16:49:03.827Z,59.05
2023-09-08T16:51:36.570Z,59.86
2023-09-08T16:54:13.500Z,60.76
2023-09-08T16:56:57.398Z,61.50
2023-09-08T16:59:30.562Z,61.78
2023-09-08T17:02:13.862Z,62.39
2023-09-08T17:04:47.414Z,62.90
2023-09-08T17:07:20.255Z,63.52
2023-09-08T17:09:56.227Z,64.56
2023-09-08T17:12:29.912Z,65.09
2023-09-08T17:15:06.671Z,65.62
2023-09-08T17:17:39.573Z,66.32
2023-09-08T17:20:26.047Z,66.92
2023-09-08T17:23:02.489Z,67.55
2023-09-08T17:25:34.982Z,68.35
2023-09-08T17:28:07.938Z,68.63
2023-09-08T17:30:41.906Z,69.14
2023-09-08T17:33:16.912Z,69.58
2023-09-08T17:35:52.092Z,70.06
2023-09-08T17:38:27.439Z,70.49
2023-09-08T17:41:10.245Z,71.08
2023-09-08T17:43:46.729Z,71.78
2023-09-08T17:46:19.525Z,72.20
2023-09-08T17:48:55.496Z,72.76
2023-09-08T17:51:27.778Z,73.19
2023-09-08T17:54:00.732Z,73.43
2023-09-08T17:56:33.304Z,73.93
2023-09-08T17:59:06.338Z,74.47
2023-09-08T18:01:40.247Z,74.85
2023-09-08T18:04:23.032Z,75.20
2023-09-08T18:06:57.931Z,75.45
2023-09-08T18:09:41.045Z,76.28
2023-09-08T18:12:34.514Z,76.69
2023-09-08T18:15:13.344Z,77.04
2023-09-08T18:17:48.637Z,77.10
2023-09-08T18:20:21.933Z,77.60
2023-09-08T18:22:55.875Z,77.87
2023-09-08T18:25:28.749Z,78.48
2023-09-08T18:28:01.585Z,78.94
2023-09-08T18:30:34.468Z,78.72
2023-09-08T18:33:07.602Z,79.35
2023-09-08T18:35:41.431Z,79.56
2023-09-08T18:38:15.119Z,79.85
2023-09-08T18:40:50.431Z,80.43
2023-09-08T18:43:22.991Z,80.33
2023-09-08T18:45:55.705Z,80.62
2023-09-08T18:48:31.720Z,80.93
2023-09-08T18:51:04.718Z,81.11
2023-09-08T18:53:39.391Z,81.37
2023-09-08T18:56:12.521Z,81.65
2023-09-08T18:58:48.484Z,81.71
2023-09-08T19:01:21.255Z,81.86
2023-09-08T19:03:53.978Z,82.04
2023-09-08T19:06:26.513Z,82.42
2023-09-08T19:08:59.634Z,82.42
2023-09-08T19:11:33.960Z,82.77
2023-09-08T19:14:08.461Z,82.82
2023-09-08T19:16:41.090Z,83.08
2023-09-08T19:19:19.223Z,83.38
2023-09-08T19:21:51.760Z,83.42
2023-09-08T19:24:25.725Z,83.70
2023-09-08T19:26:58.504Z,83.94
2023-09-08T19:29:32.831Z,84.31
2023-09-08T19:32:06.846Z,84.37
2023-09-08T19:34:39.654Z,84.83
2023-09-08T19:37:12.529Z,85.07
2023-09-08T19:39:46.389Z,85.05
2023-09-08T19:42:19.148Z,85.32
2023-09-08T19:44:51.925Z,85.58
2023-09-08T19:47:24.672Z,85.75
2023-09-08T19:49:57.340Z,85.97
2023-09-08T19:52:30.106Z,85.93
2023-09-08T19:55:03.013Z,86.26
2023-09-08T19:57:35.774Z,86.39
2023-09-08T20:00:10.470Z,86.37
2023-09-08T20:02:48.332Z,86.83
2023-09-08T20:05:21.132Z,87.05
2023-09-08T20:07:54.766Z,87.22
2023-09-08T20:10:35.155Z,87.30
2023-09-08T20:13:09.453Z,87.49
2023-09-08T20:15:42.027Z,87.74
2023-09-08T20:18:14.991Z,87.66
2023-09-08T20:20:47.817Z,87.77
2023-09-08T20:23:20.622Z,87.94
2023-09-08T20:25:54.919Z,87.90
2023-09-08T20:28:30.584Z,88.18
2023-09-08T20:33:39.669Z,88.00
2023-09-08T20:36:12.854Z,88.16
2023-09-08T20:38:45.628Z,88.43
2023-09-08T20:41:18.164Z,89.25
2023-09-08T20:43:51.005Z,89.79
2023-09-08T20:46:23.748Z,89.72
2023-09-08T20:48:56.242Z,89.64
2023-09-08T20:51:28.742Z,89.58
2023-09-08T20:54:03.442Z,89.81
2023-09-08T20:56:40.038Z,89.94
2023-09-08T20:59:12.828Z,90.20
2023-09-08T21:01:45.369Z,90.08
2023-09-08T21:04:21.099Z,90.32
2023-09-08T21:06:55.222Z,90.30
2023-09-08T21:09:28.119Z,90.55
2023-09-08T21:12:00.717Z,90.50
2023-09-08T21:14:33.415Z,90.50
2023-09-08T21:17:06.445Z,90.47
2023-09-08T21:19:38.948Z,90.62
2023-09-08T21:22:11.646Z,90.97
2023-09-08T21:24:47.940Z,91.03
2023-09-08T21:27:23.003Z,91.31
2023-09-08T21:30:06.508Z,91.05
2023-09-08T21:32:40.026Z,91.60
2023-09-08T21:35:13.425Z,91.56
2023-09-08T21:37:47.885Z,91.37
2023-09-08T21:40:43.519Z,91.40
2023-09-08T21:43:16.162Z,91.31
2023-09-08T21:46:07.662Z,91.57
2023-09-08T21:48:50.753Z,91.76
2023-09-08T21:51:47.399Z,91.75
2023-09-08T21:54:40.352Z,91.77
2023-09-08T21:57:33.417Z,91.95
2023-09-08T22:00:22.479Z,92.30
2023-09-08T22:03:01.074Z,92.84
2023-09-08T22:05:34.592Z,93.35
2023-09-08T22:08:11.155Z,93.60
2023-09-08T22:11:08.295Z,93.43
2023-09-08T22:13:45.090Z,93.34
2023-09-08T22:16:21.136Z,93.27
2023-09-08T22:19:15.306Z,93.45
2023-09-08T22:22:09.041Z,93.47
2023-09-08T22:24:45.644Z,93.32
2023-09-08T22:27:23.957Z,93.63
2023-09-08T22:30:17.598Z,93.51
2023-09-08T22:33:11.870Z,93.74
2023-09-08T22:35:55.436Z,94.42
2023-09-08T22:38:32.051Z,95.66
2023-09-08T22:41:08.490Z,95.33
2023-09-08T22:43:44.397Z,95.62
2023-09-08T22:46:37.477Z,95.49
2023-09-08T22:49:14.051Z,95.63
2023-09-08T22:52:07.987Z,95.62
2023-09-08T22:55:13.008Z,95.59
2023-09-08T22:58:16.061Z,95.67
2023-09-08T23:00:49.019Z,95.71
2023-09-08T23:03:21.971Z,95.71
2023-09-08T23:06:05.819Z,95.52
2023-09-08T23:08:49.588Z,95.74
2023-09-08T23:11:31.786Z,95.75
2023-09-08T23:14:27.557Z,95.84
2023-09-08T23:17:11.137Z,95.90
2023-09-08T23:19:43.474Z,96.00
2023-09-08T23:22:19.544Z,96.04
2023-09-08T23:24:52.412Z,95.96
2023-09-08T23:27:28.261Z,95.98
2023-09-08T23:30:05.080Z,95.81
2023-09-08T23:32:58.153Z,95.71
2023-09-08T23:35:31.627Z,95.57
2023-09-08T23:38:06.962Z,95.54
2023-09-08T23:40:41.076Z,95.43
2023-09-08T23:43:24.999Z,95.40
2023-09-08T23:46:01.078Z,95.45
2023-09-08T23:48:44.814Z,95.52
2023-09-08T23:51:19.603Z,95.69
2023-09-08T23:54:12.500Z,96.01
2023-09-08T23:56:47.263Z,96.39
2023-09-08T23:59:20.670Z,96.51
